sensor_id;sensor_type;location;lat;lon;timestamp;P1;durP1;ratioP1;P2;durP2;ratioP2
18917;SDS011;9591;52.742;13.650;2023-04-15T00:01:26;42.60;;;16.93;;
18917;SDS011;9591;52.742;13.650;2023-04-15T00:04:20;38.70;;;17.00;;
18917;SDS011;9591;52.742;13.650;2023-04-15T00:07:12;43.33;;;18.17;;
18917;SDS011;9591;52.742;13.650;2023-04-15T00:10:03;42.83;;;17.57;;
18917;SDS011;9591;52.742;13.650;2023-04-15T00:13:00;43.23;;;17.73;;
18917;SDS011;9591;52.742;13.650;2023-04-15T00:16:04;42.03;;;16.80;;
18917;SDS011;9591;52.742;13.650;2023-04-15T00:19:11;40.17;;;17.00;;
18917;SDS011;9591;52.742;13.650;2023-04-15T00:22:10;48.33;;;18.63;;
18917;SDS011;9591;52.742;13.650;2023-04-15T00:25:04;44.77;;;17.30;;
18917;SDS011;9591;52.742;13.650;2023-04-15T00:28:02;45.97;;;17.90;;
18917;SDS011;9591;52.742;13.650;2023-04-15T00:30:53;40.97;;;18.03;;
18917;SDS011;9591;52.742;13.650;2023-04-15T00:33:48;41.80;;;17.70;;
18917;SDS011;9591;52.742;13.650;2023-04-15T00:36:42;44.10;;;17.83;;
18917;SDS011;9591;52.742;13.650;2023-04-15T00:39:39;42.27;;;17.00;;
18917;SDS011;9591;52.742;13.650;2023-04-15T00:42:46;47.03;;;17.47;;
18917;SDS011;9591;52.742;13.650;2023-04-15T00:45:44;45.03;;;16.83;;
18917;SDS011;9591;52.742;13.650;2023-04-15T00:48:39;51.00;;;17.90;;
18917;SDS011;9591;52.742;13.650;2023-04-15T00:51:32;50.20;;;17.67;;
18917;SDS011;9591;52.742;13.650;2023-04-15T00:54:29;51.87;;;18.93;;
18917;SDS011;9591;52.742;13.650;2023-04-15T00:57:23;46.53;;;18.70;;
18917;SDS011;9591;52.742;13.650;2023-04-15T01:00:25;42.97;;;17.63;;
18917;SDS011;9591;52.742;13.650;2023-04-15T01:03:25;47.67;;;18.50;;
18917;SDS011;9591;52.742;13.650;2023-04-15T01:06:23;45.13;;;18.30;;
18917;SDS011;9591;52.742;13.650;2023-04-15T01:09:18;45.60;;;17.40;;
18917;SDS011;9591;52.742;13.650;2023-04-15T01:12:11;46.30;;;18.37;;
18917;SDS011;9591;52.742;13.650;2023-04-15T01:15:06;52.20;;;18.77;;
18917;SDS011;9591;52.742;13.650;2023-04-15T01:18:02;51.77;;;17.63;;
18917;SDS011;9591;52.742;13.650;2023-04-15T01:20:58;44.90;;;17.70;;
18917;SDS011;9591;52.742;13.650;2023-04-15T01:23:56;45.57;;;17.93;;
18917;SDS011;9591;52.742;13.650;2023-04-15T01:26:59;39.37;;;16.57;;
18917;SDS011;9591;52.742;13.650;2023-04-15T01:30:00;41.30;;;16.53;;
18917;SDS011;9591;52.742;13.650;2023-04-15T01:33:01;45.97;;;17.23;;
18917;SDS011;9591;52.742;13.650;2023-04-15T01:35:50;50.53;;;18.17;;
18917;SDS011;9591;52.742;13.650;2023-04-15T01:38:55;44.57;;;17.83;;
18917;SDS011;9591;52.742;13.650;2023-04-15T01:41:45;43.83;;;17.33;;
18917;SDS011;9591;52.742;13.650;2023-04-15T01:44:46;44.70;;;16.97;;
18917;SDS011;9591;52.742;13.650;2023-04-15T01:47:38;40.60;;;16.80;;
18917;SDS011;9591;52.742;13.650;2023-04-15T01:50:33;37.73;;;16.67;;
18917;SDS011;9591;52.742;13.650;2023-04-15T01:53:24;48.00;;;17.97;;
18917;SDS011;9591;52.742;13.650;2023-04-15T01:56:22;42.00;;;17.27;;
18917;SDS011;9591;52.742;13.650;2023-04-15T01:59:19;41.20;;;17.37;;
18917;SDS011;9591;52.742;13.650;2023-04-15T02:02:20;47.73;;;17.67;;
18917;SDS011;9591;52.742;13.650;2023-04-15T02:05:15;44.90;;;17.63;;
18917;SDS011;9591;52.742;13.650;2023-04-15T02:08:14;41.13;;;16.93;;
18917;SDS011;9591;52.742;13.650;2023-04-15T02:11:06;40.07;;;17.13;;
18917;SDS011;9591;52.742;13.650;2023-04-15T02:13:58;44.00;;;18.37;;
18917;SDS011;9591;52.742;13.650;2023-04-15T02:17:02;45.97;;;17.73;;
18917;SDS011;9591;52.742;13.650;2023-04-15T02:19:58;42.50;;;16.40;;
18917;SDS011;9591;52.742;13.650;2023-04-15T02:22:54;40.47;;;17.00;;
18917;SDS011;9591;52.742;13.650;2023-04-15T02:25:41;43.67;;;17.93;;
18917;SDS011;9591;52.742;13.650;2023-04-15T02:28:38;41.97;;;17.10;;
18917;SDS011;9591;52.742;13.650;2023-04-15T02:31:25;42.93;;;17.40;;
18917;SDS011;9591;52.742;13.650;2023-04-15T02:34:11;41.90;;;16.80;;
18917;SDS011;9591;52.742;13.650;2023-04-15T02:37:03;40.33;;;16.77;;
18917;SDS011;9591;52.742;13.650;2023-04-15T02:39:53;41.93;;;17.40;;
18917;SDS011;9591;52.742;13.650;2023-04-15T02:42:39;40.27;;;17.03;;
18917;SDS011;9591;52.742;13.650;2023-04-15T02:45:29;42.33;;;17.97;;
18917;SDS011;9591;52.742;13.650;2023-04-15T02:48:18;41.30;;;16.27;;
18917;SDS011;9591;52.742;13.650;2023-04-15T02:51:12;39.20;;;17.47;;
18917;SDS011;9591;52.742;13.650;2023-04-15T02:54:01;36.23;;;16.60;;
18917;SDS011;9591;52.742;13.650;2023-04-15T02:56:47;46.63;;;17.70;;
18917;SDS011;9591;52.742;13.650;2023-04-15T02:59:34;43.90;;;16.97;;
18917;SDS011;9591;52.742;13.650;2023-04-15T03:02:21;43.97;;;17.13;;
18917;SDS011;9591;52.742;13.650;2023-04-15T03:05:10;39.63;;;16.07;;
18917;SDS011;9591;52.742;13.650;2023-04-15T03:08:04;44.27;;;17.83;;
18917;SDS011;9591;52.742;13.650;2023-04-15T03:10:53;40.90;;;16.47;;
18917;SDS011;9591;52.742;13.650;2023-04-15T03:13:39;41.40;;;15.60;;
18917;SDS011;9591;52.742;13.650;2023-04-15T03:16:38;40.80;;;17.63;;
18917;SDS011;9591;52.742;13.650;2023-04-15T03:19:25;38.63;;;15.93;;
18917;SDS011;9591;52.742;13.650;2023-04-15T03:22:12;40.87;;;16.47;;
18917;SDS011;9591;52.742;13.650;2023-04-15T03:24:59;39.13;;;16.27;;
18917;SDS011;9591;52.742;13.650;2023-04-15T03:27:47;34.53;;;15.30;;
18917;SDS011;9591;52.742;13.650;2023-04-15T03:30:34;32.37;;;15.20;;
18917;SDS011;9591;52.742;13.650;2023-04-15T03:33:21;40.03;;;16.37;;
18917;SDS011;9591;52.742;13.650;2023-04-15T03:36:08;40.60;;;14.93;;
18917;SDS011;9591;52.742;13.650;2023-04-15T03:38:55;41.50;;;15.67;;
18917;SDS011;9591;52.742;13.650;2023-04-15T03:41:41;35.40;;;15.40;;
18917;SDS011;9591;52.742;13.650;2023-04-15T03:44:30;35.80;;;15.50;;
18917;SDS011;9591;52.742;13.650;2023-04-15T03:47:16;29.97;;;14.63;;
18917;SDS011;9591;52.742;13.650;2023-04-15T03:50:03;37.03;;;16.33;;
18917;SDS011;9591;52.742;13.650;2023-04-15T03:52:51;32.37;;;14.80;;
18917;SDS011;9591;52.742;13.650;2023-04-15T03:55:38;33.67;;;15.20;;
18917;SDS011;9591;52.742;13.650;2023-04-15T03:58:25;37.77;;;16.47;;
18917;SDS011;9591;52.742;13.650;2023-04-15T04:01:13;33.03;;;14.57;;
18917;SDS011;9591;52.742;13.650;2023-04-15T04:04:00;33.27;;;14.63;;
18917;SDS011;9591;52.742;13.650;2023-04-15T04:06:47;36.43;;;15.00;;
18917;SDS011;9591;52.742;13.650;2023-04-15T04:09:34;31.13;;;14.77;;
18917;SDS011;9591;52.742;13.650;2023-04-15T04:12:23;31.53;;;14.30;;
18917;SDS011;9591;52.742;13.650;2023-04-15T04:15:10;34.10;;;14.80;;
18917;SDS011;9591;52.742;13.650;2023-04-15T04:17:58;35.07;;;15.57;;
18917;SDS011;9591;52.742;13.650;2023-04-15T04:20:45;30.50;;;14.20;;
18917;SDS011;9591;52.742;13.650;2023-04-15T04:23:32;28.13;;;12.97;;
18917;SDS011;9591;52.742;13.650;2023-04-15T04:26:18;26.17;;;14.33;;
18917;SDS011;9591;52.742;13.650;2023-04-15T04:29:05;26.57;;;12.93;;
18917;SDS011;9591;52.742;13.650;2023-04-15T04:31:52;36.37;;;14.83;;
18917;SDS011;9591;52.742;13.650;2023-04-15T04:34:40;28.67;;;13.77;;
18917;SDS011;9591;52.742;13.650;2023-04-15T04:37:27;26.73;;;12.63;;
18917;SDS011;9591;52.742;13.650;2023-04-15T04:40:14;30.20;;;14.77;;
18917;SDS011;9591;52.742;13.650;2023-04-15T04:43:01;28.57;;;13.87;;
18917;SDS011;9591;52.742;13.650;2023-04-15T04:45:48;31.57;;;13.37;;
18917;SDS011;9591;52.742;13.650;2023-04-15T04:48:34;26.77;;;11.87;;
18917;SDS011;9591;52.742;13.650;2023-04-15T04:51:22;33.20;;;15.13;;
18917;SDS011;9591;52.742;13.650;2023-04-15T04:54:10;27.07;;;13.00;;
18917;SDS011;9591;52.742;13.650;2023-04-15T04:56:56;28.10;;;13.00;;
18917;SDS011;9591;52.742;13.650;2023-04-15T04:59:43;25.20;;;11.93;;
18917;SDS011;9591;52.742;13.650;2023-04-15T05:02:30;27.50;;;13.37;;
18917;SDS011;9591;52.742;13.650;2023-04-15T05:05:17;25.47;;;12.60;;
18917;SDS011;9591;52.742;13.650;2023-04-15T05:08:06;27.97;;;12.40;;
18917;SDS011;9591;52.742;13.650;2023-04-15T05:10:53;28.07;;;13.30;;
18917;SDS011;9591;52.742;13.650;2023-04-15T05:13:39;25.90;;;12.07;;
18917;SDS011;9591;52.742;13.650;2023-04-15T05:16:26;29.43;;;12.70;;
18917;SDS011;9591;52.742;13.650;2023-04-15T05:19:13;29.33;;;13.50;;
18917;SDS011;9591;52.742;13.650;2023-04-15T05:22:00;34.97;;;15.77;;
18917;SDS011;9591;52.742;13.650;2023-04-15T05:24:48;34.97;;;16.30;;
18917;SDS011;9591;52.742;13.650;2023-04-15T05:27:35;33.73;;;13.77;;
18917;SDS011;9591;52.742;13.650;2023-04-15T05:30:22;29.10;;;14.77;;
18917;SDS011;9591;52.742;13.650;2023-04-15T05:33:08;30.33;;;14.17;;
18917;SDS011;9591;52.742;13.650;2023-04-15T05:35:55;17.73;;;10.57;;
18917;SDS011;9591;52.742;13.650;2023-04-15T05:38:42;21.03;;;11.13;;
18917;SDS011;9591;52.742;13.650;2023-04-15T05:41:30;26.47;;;12.40;;
18917;SDS011;9591;52.742;13.650;2023-04-15T05:44:17;24.60;;;13.93;;
18917;SDS011;9591;52.742;13.650;2023-04-15T05:47:04;21.60;;;11.53;;
18917;SDS011;9591;52.742;13.650;2023-04-15T05:49:51;28.03;;;13.93;;
18917;SDS011;9591;52.742;13.650;2023-04-15T05:52:39;24.97;;;13.57;;
18917;SDS011;9591;52.742;13.650;2023-04-15T05:55:26;20.27;;;11.53;;
18917;SDS011;9591;52.742;13.650;2023-04-15T05:58:14;18.17;;;10.70;;
18917;SDS011;9591;52.742;13.650;2023-04-15T06:01:01;23.87;;;12.27;;
18917;SDS011;9591;52.742;13.650;2023-04-15T06:03:48;19.83;;;11.27;;
18917;SDS011;9591;52.742;13.650;2023-04-15T06:06:35;20.53;;;10.50;;
18917;SDS011;9591;52.742;13.650;2023-04-15T06:09:22;22.23;;;12.83;;
18917;SDS011;9591;52.742;13.650;2023-04-15T06:12:09;22.17;;;11.43;;
18917;SDS011;9591;52.742;13.650;2023-04-15T06:14:57;17.90;;;10.17;;
18917;SDS011;9591;52.742;13.650;2023-04-15T06:17:44;18.33;;;9.33;;
18917;SDS011;9591;52.742;13.650;2023-04-15T06:20:31;19.43;;;10.27;;
18917;SDS011;9591;52.742;13.650;2023-04-15T06:23:18;19.93;;;10.57;;
18917;SDS011;9591;52.742;13.650;2023-04-15T06:26:04;16.43;;;10.33;;
18917;SDS011;9591;52.742;13.650;2023-04-15T06:28:51;19.03;;;10.03;;
18917;SDS011;9591;52.742;13.650;2023-04-15T06:31:40;18.53;;;10.23;;
18917;SDS011;9591;52.742;13.650;2023-04-15T06:34:26;20.23;;;10.67;;
18917;SDS011;9591;52.742;13.650;2023-04-15T06:37:13;16.53;;;10.10;;
18917;SDS011;9591;52.742;13.650;2023-04-15T06:40:01;19.53;;;10.53;;
18917;SDS011;9591;52.742;13.650;2023-04-15T06:42:49;13.40;;;9.00;;
18917;SDS011;9591;52.742;13.650;2023-04-15T06:45:36;17.30;;;10.37;;
18917;SDS011;9591;52.742;13.650;2023-04-15T06:48:24;15.33;;;9.63;;
18917;SDS011;9591;52.742;13.650;2023-04-15T06:51:11;18.50;;;11.53;;
18917;SDS011;9591;52.742;13.650;2023-04-15T06:53:58;21.27;;;10.60;;
18917;SDS011;9591;52.742;13.650;2023-04-15T06:56:45;17.73;;;10.37;;
18917;SDS011;9591;52.742;13.650;2023-04-15T06:59:32;16.83;;;10.47;;
18917;SDS011;9591;52.742;13.650;2023-04-15T07:02:19;21.93;;;10.37;;
18917;SDS011;9591;52.742;13.650;2023-04-15T07:05:07;19.13;;;10.13;;
18917;SDS011;9591;52.742;13.650;2023-04-15T07:07:54;20.07;;;10.17;;
18917;SDS011;9591;52.742;13.650;2023-04-15T07:10:41;16.77;;;10.17;;
18917;SDS011;9591;52.742;13.650;2023-04-15T07:13:29;18.97;;;10.03;;
18917;SDS011;9591;52.742;13.650;2023-04-15T07:16:16;23.27;;;10.17;;
18917;SDS011;9591;52.742;13.650;2023-04-15T07:19:03;19.43;;;10.07;;
18917;SDS011;9591;52.742;13.650;2023-04-15T07:21:51;21.43;;;10.67;;
18917;SDS011;9591;52.742;13.650;2023-04-15T07:24:38;17.67;;;10.13;;
18917;SDS011;9591;52.742;13.650;2023-04-15T07:27:25;18.80;;;9.07;;
18917;SDS011;9591;52.742;13.650;2023-04-15T07:30:15;18.53;;;9.90;;
18917;SDS011;9591;52.742;13.650;2023-04-15T07:33:02;19.33;;;10.27;;
18917;SDS011;9591;52.742;13.650;2023-04-15T07:35:48;19.83;;;10.70;;
18917;SDS011;9591;52.742;13.650;2023-04-15T07:38:37;20.03;;;10.57;;
18917;SDS011;9591;52.742;13.650;2023-04-15T07:41:23;17.40;;;9.80;;
18917;SDS011;9591;52.742;13.650;2023-04-15T07:44:10;24.03;;;11.47;;
18917;SDS011;9591;52.742;13.650;2023-04-15T07:46:57;16.60;;;10.47;;
18917;SDS011;9591;52.742;13.650;2023-04-15T07:49:44;15.87;;;9.80;;
18917;SDS011;9591;52.742;13.650;2023-04-15T07:52:31;18.60;;;9.80;;
18917;SDS011;9591;52.742;13.650;2023-04-15T07:55:24;21.23;;;11.27;;
18917;SDS011;9591;52.742;13.650;2023-04-15T07:58:12;17.20;;;10.10;;
18917;SDS011;9591;52.742;13.650;2023-04-15T08:00:59;18.50;;;9.67;;
18917;SDS011;9591;52.742;13.650;2023-04-15T08:03:46;22.40;;;11.63;;
18917;SDS011;9591;52.742;13.650;2023-04-15T08:06:32;19.17;;;10.90;;
18917;SDS011;9591;52.742;13.650;2023-04-15T08:09:19;18.40;;;9.87;;
18917;SDS011;9591;52.742;13.650;2023-04-15T08:12:07;18.70;;;10.60;;
18917;SDS011;9591;52.742;13.650;2023-04-15T08:14:57;18.83;;;10.40;;
18917;SDS011;9591;52.742;13.650;2023-04-15T08:17:44;20.10;;;10.00;;
18917;SDS011;9591;52.742;13.650;2023-04-15T08:20:32;19.20;;;10.80;;
18917;SDS011;9591;52.742;13.650;2023-04-15T08:23:18;18.10;;;10.47;;
18917;SDS011;9591;52.742;13.650;2023-04-15T08:26:05;17.10;;;8.90;;
18917;SDS011;9591;52.742;13.650;2023-04-15T08:28:54;18.07;;;9.53;;
18917;SDS011;9591;52.742;13.650;2023-04-15T08:31:41;29.63;;;13.73;;
18917;SDS011;9591;52.742;13.650;2023-04-15T08:34:29;32.00;;;14.17;;
18917;SDS011;9591;52.742;13.650;2023-04-15T08:37:16;21.77;;;10.30;;
18917;SDS011;9591;52.742;13.650;2023-04-15T08:40:03;19.57;;;10.33;;
18917;SDS011;9591;52.742;13.650;2023-04-15T08:42:51;18.70;;;10.10;;
18917;SDS011;9591;52.742;13.650;2023-04-15T08:45:44;20.50;;;11.77;;
18917;SDS011;9591;52.742;13.650;2023-04-15T08:48:32;16.90;;;9.70;;
18917;SDS011;9591;52.742;13.650;2023-04-15T08:51:19;14.70;;;9.07;;
18917;SDS011;9591;52.742;13.650;2023-04-15T08:54:09;20.80;;;11.37;;
18917;SDS011;9591;52.742;13.650;2023-04-15T08:57:04;30.60;;;15.10;;
18917;SDS011;9591;52.742;13.650;2023-04-15T08:59:52;16.27;;;8.83;;
18917;SDS011;9591;52.742;13.650;2023-04-15T09:02:41;18.33;;;10.27;;
18917;SDS011;9591;52.742;13.650;2023-04-15T09:05:30;16.70;;;9.60;;
18917;SDS011;9591;52.742;13.650;2023-04-15T09:08:17;15.93;;;9.43;;
18917;SDS011;9591;52.742;13.650;2023-04-15T09:11:04;17.23;;;9.93;;
18917;SDS011;9591;52.742;13.650;2023-04-15T09:13:52;17.63;;;10.73;;
18917;SDS011;9591;52.742;13.650;2023-04-15T09:16:54;18.83;;;10.70;;
18917;SDS011;9591;52.742;13.650;2023-04-15T09:19:42;22.63;;;11.77;;
18917;SDS011;9591;52.742;13.650;2023-04-15T09:22:30;19.27;;;10.03;;
18917;SDS011;9591;52.742;13.650;2023-04-15T09:25:27;14.03;;;9.40;;
18917;SDS011;9591;52.742;13.650;2023-04-15T09:28:22;27.53;;;10.50;;
18917;SDS011;9591;52.742;13.650;2023-04-15T09:31:12;16.87;;;9.83;;
18917;SDS011;9591;52.742;13.650;2023-04-15T09:33:59;17.03;;;9.87;;
18917;SDS011;9591;52.742;13.650;2023-04-15T09:36:55;19.70;;;9.73;;
18917;SDS011;9591;52.742;13.650;2023-04-15T09:39:46;18.80;;;9.80;;
18917;SDS011;9591;52.742;13.650;2023-04-15T09:42:36;19.97;;;10.07;;
18917;SDS011;9591;52.742;13.650;2023-04-15T09:45:23;15.70;;;9.90;;
18917;SDS011;9591;52.742;13.650;2023-04-15T09:48:15;19.87;;;9.63;;
18917;SDS011;9591;52.742;13.650;2023-04-15T09:51:05;17.70;;;9.83;;
18917;SDS011;9591;52.742;13.650;2023-04-15T09:53:53;15.87;;;9.53;;
18917;SDS011;9591;52.742;13.650;2023-04-15T09:56:40;13.90;;;8.60;;
18917;SDS011;9591;52.742;13.650;2023-04-15T09:59:27;14.63;;;9.10;;
18917;SDS011;9591;52.742;13.650;2023-04-15T10:02:14;17.60;;;9.33;;
18917;SDS011;9591;52.742;13.650;2023-04-15T10:05:03;16.47;;;9.30;;
18917;SDS011;9591;52.742;13.650;2023-04-15T10:07:50;18.73;;;9.87;;
18917;SDS011;9591;52.742;13.650;2023-04-15T10:10:36;18.13;;;9.73;;
18917;SDS011;9591;52.742;13.650;2023-04-15T10:13:24;17.47;;;9.47;;
18917;SDS011;9591;52.742;13.650;2023-04-15T10:16:13;15.20;;;9.40;;
18917;SDS011;9591;52.742;13.650;2023-04-15T10:19:01;18.50;;;9.77;;
18917;SDS011;9591;52.742;13.650;2023-04-15T10:21:50;18.07;;;9.63;;
18917;SDS011;9591;52.742;13.650;2023-04-15T10:24:37;17.43;;;10.73;;
18917;SDS011;9591;52.742;13.650;2023-04-15T10:27:25;15.13;;;8.17;;
18917;SDS011;9591;52.742;13.650;2023-04-15T10:30:13;19.67;;;9.73;;
18917;SDS011;9591;52.742;13.650;2023-04-15T10:33:00;19.20;;;10.10;;
18917;SDS011;9591;52.742;13.650;2023-04-15T10:35:49;17.73;;;10.17;;
18917;SDS011;9591;52.742;13.650;2023-04-15T10:38:38;18.53;;;10.67;;
18917;SDS011;9591;52.742;13.650;2023-04-15T10:41:27;18.27;;;9.57;;
18917;SDS011;9591;52.742;13.650;2023-04-15T10:44:15;18.07;;;9.83;;
18917;SDS011;9591;52.742;13.650;2023-04-15T10:47:03;15.43;;;9.50;;
18917;SDS011;9591;52.742;13.650;2023-04-15T10:49:57;18.50;;;10.40;;
18917;SDS011;9591;52.742;13.650;2023-04-15T10:52:44;14.03;;;8.70;;
18917;SDS011;9591;52.742;13.650;2023-04-15T10:55:33;16.67;;;9.33;;
18917;SDS011;9591;52.742;13.650;2023-04-15T10:58:21;16.93;;;9.03;;
18917;SDS011;9591;52.742;13.650;2023-04-15T11:01:08;15.57;;;9.50;;
18917;SDS011;9591;52.742;13.650;2023-04-15T11:03:55;15.40;;;9.23;;
18917;SDS011;9591;52.742;13.650;2023-04-15T11:06:42;14.33;;;8.97;;
18917;SDS011;9591;52.742;13.650;2023-04-15T11:09:30;17.33;;;9.50;;
18917;SDS011;9591;52.742;13.650;2023-04-15T11:12:19;13.07;;;8.30;;
18917;SDS011;9591;52.742;13.650;2023-04-15T11:18:16;14.03;;;8.73;;
18917;SDS011;9591;52.742;13.650;2023-04-15T11:21:04;17.83;;;9.57;;
18917;SDS011;9591;52.742;13.650;2023-04-15T11:23:52;18.50;;;9.53;;
18917;SDS011;9591;52.742;13.650;2023-04-15T11:26:39;17.33;;;9.70;;
18917;SDS011;9591;52.742;13.650;2023-04-15T11:29:29;15.73;;;9.47;;
18917;SDS011;9591;52.742;13.650;2023-04-15T11:32:16;16.47;;;9.70;;
18917;SDS011;9591;52.742;13.650;2023-04-15T11:35:03;19.90;;;11.80;;
18917;SDS011;9591;52.742;13.650;2023-04-15T11:37:50;15.73;;;9.13;;
18917;SDS011;9591;52.742;13.650;2023-04-15T11:40:38;33.00;;;17.50;;
18917;SDS011;9591;52.742;13.650;2023-04-15T11:43:30;13.83;;;8.87;;
18917;SDS011;9591;52.742;13.650;2023-04-15T11:46:27;16.60;;;9.47;;
18917;SDS011;9591;52.742;13.650;2023-04-15T11:49:24;17.03;;;10.17;;
18917;SDS011;9591;52.742;13.650;2023-04-15T11:52:11;22.83;;;11.13;;
18917;SDS011;9591;52.742;13.650;2023-04-15T11:55:01;18.00;;;9.93;;
18917;SDS011;9591;52.742;13.650;2023-04-15T11:57:49;18.87;;;10.77;;
18917;SDS011;9591;52.742;13.650;2023-04-15T12:00:36;16.60;;;10.17;;
18917;SDS011;9591;52.742;13.650;2023-04-15T12:03:25;19.60;;;10.50;;
18917;SDS011;9591;52.742;13.650;2023-04-15T12:06:14;18.73;;;8.83;;
18917;SDS011;9591;52.742;13.650;2023-04-15T12:09:06;19.50;;;10.43;;
18917;SDS011;9591;52.742;13.650;2023-04-15T12:11:56;19.67;;;10.67;;
18917;SDS011;9591;52.742;13.650;2023-04-15T12:14:43;18.87;;;10.37;;
18917;SDS011;9591;52.742;13.650;2023-04-15T12:17:30;20.20;;;11.60;;
18917;SDS011;9591;52.742;13.650;2023-04-15T12:20:43;17.33;;;10.30;;
18917;SDS011;9591;52.742;13.650;2023-04-15T12:23:31;19.17;;;10.90;;
18917;SDS011;9591;52.742;13.650;2023-04-15T12:26:26;19.07;;;10.80;;
18917;SDS011;9591;52.742;13.650;2023-04-15T12:29:14;18.57;;;11.37;;
18917;SDS011;9591;52.742;13.650;2023-04-15T12:32:05;22.37;;;11.03;;
18917;SDS011;9591;52.742;13.650;2023-04-15T12:34:53;20.00;;;10.77;;
18917;SDS011;9591;52.742;13.650;2023-04-15T12:37:41;24.30;;;11.43;;
18917;SDS011;9591;52.742;13.650;2023-04-15T12:40:28;21.43;;;11.27;;
18917;SDS011;9591;52.742;13.650;2023-04-15T12:43:15;18.90;;;10.57;;
18917;SDS011;9591;52.742;13.650;2023-04-15T12:46:02;19.27;;;9.83;;
18917;SDS011;9591;52.742;13.650;2023-04-15T12:48:49;16.43;;;9.60;;
18917;SDS011;9591;52.742;13.650;2023-04-15T12:51:37;18.47;;;10.50;;
18917;SDS011;9591;52.742;13.650;2023-04-15T12:54:25;16.53;;;9.87;;
18917;SDS011;9591;52.742;13.650;2023-04-15T12:57:13;25.30;;;11.53;;
18917;SDS011;9591;52.742;13.650;2023-04-15T13:00:00;23.80;;;11.37;;
18917;SDS011;9591;52.742;13.650;2023-04-15T13:02:46;19.53;;;10.47;;
18917;SDS011;9591;52.742;13.650;2023-04-15T13:05:33;22.67;;;9.50;;
18917;SDS011;9591;52.742;13.650;2023-04-15T13:08:21;15.73;;;9.90;;
18917;SDS011;9591;52.742;13.650;2023-04-15T13:11:11;13.77;;;8.33;;
18917;SDS011;9591;52.742;13.650;2023-04-15T13:13:59;13.80;;;7.73;;
18917;SDS011;9591;52.742;13.650;2023-04-15T13:16:47;15.77;;;9.30;;
18917;SDS011;9591;52.742;13.650;2023-04-15T13:19:33;17.43;;;8.73;;
18917;SDS011;9591;52.742;13.650;2023-04-15T13:22:21;17.50;;;9.33;;
18917;SDS011;9591;52.742;13.650;2023-04-15T13:25:08;20.00;;;10.33;;
18917;SDS011;9591;52.742;13.650;2023-04-15T13:27:57;17.03;;;9.87;;
18917;SDS011;9591;52.742;13.650;2023-04-15T13:30:45;18.43;;;10.57;;
18917;SDS011;9591;52.742;13.650;2023-04-15T13:33:32;17.47;;;8.83;;
18917;SDS011;9591;52.742;13.650;2023-04-15T13:36:19;14.67;;;8.33;;
18917;SDS011;9591;52.742;13.650;2023-04-15T13:39:06;11.47;;;8.30;;
18917;SDS011;9591;52.742;13.650;2023-04-15T13:41:53;16.50;;;9.37;;
18917;SDS011;9591;52.742;13.650;2023-04-15T13:44:41;17.83;;;9.67;;
18917;SDS011;9591;52.742;13.650;2023-04-15T13:47:28;18.50;;;9.47;;
18917;SDS011;9591;52.742;13.650;2023-04-15T13:50:15;20.07;;;9.93;;
18917;SDS011;9591;52.742;13.650;2023-04-15T13:53:02;20.10;;;10.50;;
18917;SDS011;9591;52.742;13.650;2023-04-15T13:55:49;15.57;;;8.50;;
18917;SDS011;9591;52.742;13.650;2023-04-15T13:58:36;17.57;;;9.40;;
18917;SDS011;9591;52.742;13.650;2023-04-15T14:01:24;18.53;;;9.00;;
18917;SDS011;9591;52.742;13.650;2023-04-15T14:04:12;15.97;;;8.70;;
18917;SDS011;9591;52.742;13.650;2023-04-15T14:06:58;17.60;;;10.23;;
18917;SDS011;9591;52.742;13.650;2023-04-15T14:09:48;11.63;;;7.17;;
18917;SDS011;9591;52.742;13.650;2023-04-15T14:12:35;13.47;;;8.13;;
18917;SDS011;9591;52.742;13.650;2023-04-15T14:15:22;13.70;;;7.70;;
18917;SDS011;9591;52.742;13.650;2023-04-15T14:18:10;13.23;;;8.20;;
18917;SDS011;9591;52.742;13.650;2023-04-15T14:20:57;12.03;;;7.17;;
18917;SDS011;9591;52.742;13.650;2023-04-15T14:23:44;13.13;;;6.93;;
18917;SDS011;9591;52.742;13.650;2023-04-15T14:26:30;14.47;;;7.40;;
18917;SDS011;9591;52.742;13.650;2023-04-15T14:29:17;11.00;;;7.67;;
18917;SDS011;9591;52.742;13.650;2023-04-15T14:32:04;11.63;;;6.90;;
18917;SDS011;9591;52.742;13.650;2023-04-15T14:34:57;12.37;;;7.37;;
18917;SDS011;9591;52.742;13.650;2023-04-15T14:37:44;12.20;;;7.60;;
18917;SDS011;9591;52.742;13.650;2023-04-15T14:40:31;11.20;;;7.40;;
18917;SDS011;9591;52.742;13.650;2023-04-15T14:43:19;14.20;;;8.60;;
18917;SDS011;9591;52.742;13.650;2023-04-15T14:46:05;13.90;;;8.60;;
18917;SDS011;9591;52.742;13.650;2023-04-15T14:48:52;14.57;;;8.30;;
18917;SDS011;9591;52.742;13.650;2023-04-15T14:51:41;15.20;;;8.10;;
18917;SDS011;9591;52.742;13.650;2023-04-15T14:54:27;11.70;;;7.57;;
18917;SDS011;9591;52.742;13.650;2023-04-15T14:57:14;11.67;;;7.80;;
18917;SDS011;9591;52.742;13.650;2023-04-15T15:00:01;11.70;;;7.57;;
18917;SDS011;9591;52.742;13.650;2023-04-15T15:02:48;10.73;;;6.23;;
18917;SDS011;9591;52.742;13.650;2023-04-15T15:05:35;10.67;;;6.33;;
18917;SDS011;9591;52.742;13.650;2023-04-15T15:08:23;10.97;;;6.90;;
18917;SDS011;9591;52.742;13.650;2023-04-15T15:11:10;9.93;;;6.13;;
18917;SDS011;9591;52.742;13.650;2023-04-15T15:13:57;9.40;;;6.70;;
18917;SDS011;9591;52.742;13.650;2023-04-15T15:16:43;8.60;;;6.30;;
18917;SDS011;9591;52.742;13.650;2023-04-15T15:19:31;10.93;;;6.97;;
18917;SDS011;9591;52.742;13.650;2023-04-15T15:22:18;11.67;;;6.60;;
18917;SDS011;9591;52.742;13.650;2023-04-15T15:25:07;8.70;;;6.67;;
18917;SDS011;9591;52.742;13.650;2023-04-15T15:27:54;8.43;;;6.10;;
18917;SDS011;9591;52.742;13.650;2023-04-15T15:30:41;8.67;;;6.47;;
18917;SDS011;9591;52.742;13.650;2023-04-15T15:33:28;13.20;;;6.97;;
18917;SDS011;9591;52.742;13.650;2023-04-15T15:36:14;9.00;;;6.77;;
18917;SDS011;9591;52.742;13.650;2023-04-15T15:39:01;10.77;;;6.40;;
18917;SDS011;9591;52.742;13.650;2023-04-15T15:41:50;10.60;;;6.50;;
18917;SDS011;9591;52.742;13.650;2023-04-15T15:44:37;11.60;;;7.00;;
18917;SDS011;9591;52.742;13.650;2023-04-15T15:47:24;9.87;;;7.20;;
18917;SDS011;9591;52.742;13.650;2023-04-15T15:50:11;9.50;;;6.50;;
18917;SDS011;9591;52.742;13.650;2023-04-15T15:52:59;8.93;;;5.70;;
18917;SDS011;9591;52.742;13.650;2023-04-15T15:55:46;9.77;;;5.77;;
18917;SDS011;9591;52.742;13.650;2023-04-15T15:58:34;9.00;;;5.70;;
18917;SDS011;9591;52.742;13.650;2023-04-15T16:01:21;8.33;;;5.13;;
18917;SDS011;9591;52.742;13.650;2023-04-15T16:04:08;6.97;;;5.37;;
18917;SDS011;9591;52.742;13.650;2023-04-15T16:06:55;6.07;;;5.30;;
18917;SDS011;9591;52.742;13.650;2023-04-15T16:09:42;7.97;;;5.87;;
18917;SDS011;9591;52.742;13.650;2023-04-15T16:12:29;9.03;;;6.20;;
18917;SDS011;9591;52.742;13.650;2023-04-15T16:15:20;10.60;;;6.30;;
18917;SDS011;9591;52.742;13.650;2023-04-15T16:18:08;7.77;;;5.73;;
18917;SDS011;9591;52.742;13.650;2023-04-15T16:20:54;9.77;;;5.97;;
18917;SDS011;9591;52.742;13.650;2023-04-15T16:23:41;8.47;;;6.07;;
18917;SDS011;9591;52.742;13.650;2023-04-15T16:26:28;9.50;;;6.70;;
18917;SDS011;9591;52.742;13.650;2023-04-15T16:29:15;12.27;;;6.20;;
18917;SDS011;9591;52.742;13.650;2023-04-15T16:32:03;11.97;;;6.47;;
18917;SDS011;9591;52.742;13.650;2023-04-15T16:34:51;8.97;;;6.87;;
18917;SDS011;9591;52.742;13.650;2023-04-15T16:37:38;9.83;;;6.50;;
18917;SDS011;9591;52.742;13.650;2023-04-15T16:40:24;8.43;;;6.53;;